Time;durP1;ratioP1;P1;durP2;ratioP2;P2;SDS_P1;SDS_P2;PMS_P1;PMS_P2;Temp;Humidity;BMP_temperature;BMP_pressure;BME280_temperature;BME280_humidity;BME280_pressure;Samples;Min_cycle;Max_cycle;Signal;HPM_P1;HPM_P2
2021/08/31 00:00:16;;;;;;;15.50;10.40;;;;;;;12.66;100.00;96003.88;1031671;28;20392;-69
2021/08/31 00:00:47;;;;;;;20.02;11.50;;;;;;;12.60;100.00;95999.66;1015557;29;20585;-69
2021/08/31 00:01:17;;;;;;;14.88;9.88;;;;;;;12.64;100.00;96008.63;1023320;29;20267;-69
2021/08/31 00:01:47;;;;;;;17.40;10.50;;;;;;;12.64;100.00;96013.91;1023841;28;20043;-70
2021/08/31 00:02:18;;;;;;;17.20;10.40;;;;;;;12.59;100.00;96002.59;1023349;28;20126;-69
2021/08/31 00:02:48;;;;;;;18.35;11.25;;;;;;;12.61;100.00;96010.97;1027598;28;20117;-67
2021/08/31 00:03:20;;;;;;;18.83;9.90;;;;;;;12.57;100.00;95999.41;1024016;29;20536;-69
2021/08/31 00:03:50;;;;;;;14.05;10.05;;;;;;;12.61;100.00;96008.34;1026760;28;20022;-67
2021/08/31 00:04:21;;;;;;;14.95;10.52;;;;;;;12.62;100.00;96007.31;1024202;28;20270;-70
2021/08/31 00:04:51;;;;;;;16.33;10.52;;;;;;;12.45;100.00;95986.56;1027996;28;20027;-70
2021/08/31 00:05:22;;;;;;;16.80;10.93;;;;;;;12.62;100.00;96009.94;1023773;29;20027;-69
2021/08/31 00:05:52;;;;;;;19.27;11.00;;;;;;;12.60;100.00;96009.41;1023259;28;20074;-70
2021/08/31 00:06:23;;;;;;;21.23;11.63;;;;;;;12.60;100.00;96010.19;1019558;29;20027;-69
2021/08/31 00:06:53;;;;;;;15.82;10.40;;;;;;;12.60;100.00;96007.56;1022426;28;20034;-70
2021/08/31 00:07:24;;;;;;;20.58;11.55;;;;;;;12.62;100.00;96007.31;1031497;28;20034;-70
2021/08/31 00:07:54;;;;;;;18.23;11.40;;;;;;;12.61;100.00;96013.63;1032159;28;20034;-69
2021/08/31 00:08:25;;;;;;;19.17;11.63;;;;;;;12.55;100.00;95998.91;1039900;28;20692;-69
2021/08/31 00:08:55;;;;;;;18.30;11.52;;;;;;;12.61;100.00;96010.97;1035256;28;20514;-68
2021/08/31 00:09:26;;;;;;;14.60;9.93;;;;;;;12.61;100.00;96011.78;1035980;28;20026;-70
2021/08/31 00:09:56;;;;;;;15.30;10.25;;;;;;;12.59;100.00;96007.84;1035817;28;20065;-69
2021/08/31 00:10:27;;;;;;;18.17;11.18;;;;;;;12.60;100.00;96014.69;1035885;28;20467;-69
2021/08/31 00:10:57;;;;;;;18.13;10.77;;;;;;;12.54;100.00;95997.31;1037783;28;20567;-69
2021/08/31 00:11:28;;;;;;;17.33;10.88;;;;;;;12.58;100.00;96014.97;1026962;28;20170;-67
2021/08/31 00:11:58;;;;;;;16.83;11.20;;;;;;;12.59;100.00;96013.13;1031902;28;20018;-70
2021/08/31 00:12:29;;;;;;;24.60;13.10;;;;;;;12.58;100.00;96008.91;1027621;28;20019;-68
2021/08/31 00:12:59;;;;;;;18.23;10.80;;;;;;;12.63;100.00;96016.78;1027262;28;20461;-69
2021/08/31 00:13:29;;;;;;;19.65;12.02;;;;;;;12.60;100.00;96018.09;1023810;29;20119;-69
2021/08/31 00:14:00;;;;;;;20.67;12.90;;;;;;;12.58;100.00;96007.06;1031758;28;20034;-69
2021/08/31 00:14:30;;;;;;;20.63;11.75;;;;;;;12.64;100.00;96015.72;1035279;28;20029;-68
2021/08/31 00:15:01;;;;;;;18.20;11.63;;;;;;;12.62;100.00;96017.84;1023712;29;20054;-69
2021/08/31 00:15:32;;;;;;;21.48;12.15;;;;;;;12.62;100.00;96017.84;1022855;29;20110;-69
2021/08/31 00:16:03;;;;;;;21.05;12.52;;;;;;;12.59;100.00;96007.84;1023737;29;20074;-69
2021/08/31 00:16:33;;;;;;;17.13;11.75;;;;;;;12.59;100.00;96015.75;1031532;28;20114;-69
2021/08/31 00:17:06;;;;;;;19.27;12.02;;;;;;;12.60;100.00;96015.47;1035735;28;20160;-70
2021/08/31 00:17:36;;;;;;;28.67;13.98;;;;;;;12.58;100.00;96017.59;1027714;28;20044;-70
2021/08/31 00:18:07;;;;;;;22.42;12.27;;;;;;;12.59;100.00;96028.91;1024172;28;20259;-69
2021/08/31 00:18:37;;;;;;;19.27;11.13;;;;;;;12.60;100.00;96025.22;1023760;29;20031;-70
2021/08/31 00:19:08;;;;;;;19.38;11.75;;;;;;;12.62;100.00;96020.47;1031054;28;20076;-69
2021/08/31 00:19:38;;;;;;;21.65;12.40;;;;;;;12.57;100.00;96010.72;1030112;28;20094;-68
2021/08/31 00:20:10;;;;;;;25.25;13.95;;;;;;;12.56;100.00;96014.44;1035341;28;20031;-68
2021/08/31 00:20:40;;;;;;;18.92;11.38;;;;;;;12.60;100.00;96022.56;1027713;28;20026;-69
2021/08/31 00:21:11;;;;;;;17.17;11.88;;;;;;;12.56;100.00;96024.97;1027479;28;20258;-69
2021/08/31 00:21:41;;;;;;;22.85;13.20;;;;;;;12.57;100.00;96017.84;1025970;28;20023;-69
2021/08/31 00:22:12;;;;;;;19.85;12.00;;;;;;;12.57;100.00;96016.00;1028277;28;20035;-69
2021/08/31 00:22:42;;;;;;;19.23;12.05;;;;;;;12.57;100.00;96026.53;1027800;28;20405;-69
2021/08/31 00:23:13;;;;;;;19.08;11.63;;;;;;;12.57;100.00;96023.13;1027029;28;20416;-68
2021/08/31 00:23:43;;;;;;;15.75;10.05;;;;;;;12.58;100.00;96020.22;1031500;28;20037;-70
2021/08/31 00:24:14;;;;;;;16.83;10.52;;;;;;;12.50;100.00;96016.28;1031776;28;20037;-69
2021/08/31 00:24:45;;;;;;;16.98;11.85;;;;;;;12.53;100.00;96024.72;1027742;28;20122;-66
2021/08/31 00:25:15;;;;;;;21.25;12.18;;;;;;;12.56;100.00;96024.97;1023684;28;20274;-69
2021/08/31 00:25:46;;;;;;;18.70;11.98;;;;;;;12.59;100.00;96028.91;1023376;28;20067;-69
2021/08/31 00:26:16;;;;;;;23.70;13.95;;;;;;;12.54;100.00;96018.38;1023927;28;20027;-69
2021/08/31 00:26:47;;;;;;;21.35;11.98;;;;;;;12.59;100.00;96021.00;1027689;28;20027;-69
2021/08/31 00:27:17;;;;;;;22.05;13.18;;;;;;;12.57;100.00;96018.63;1027319;28;20033;-69
2021/08/31 00:27:48;;;;;;;18.70;12.30;;;;;;;12.57;100.00;96017.84;1027836;28;20138;-68
2021/08/31 00:28:21;;;;;;;19.23;11.65;;;;;;;12.59;100.00;96019.16;1024405;28;20046;-70
2021/08/31 00:28:52;;;;;;;23.77;13.75;;;;;;;12.58;100.00;96016.81;1027774;28;20019;-70
2021/08/31 00:29:22;;;;;;;18.58;12.45;;;;;;;12.55;100.00;96018.13;1023624;29;20862;-70
2021/08/31 00:29:53;;;;;;;18.80;11.98;;;;;;;12.55;100.00;96019.97;1026494;28;20027;-68
2021/08/31 00:30:23;;;;;;;22.60;12.55;;;;;;;12.55;100.00;96018.13;1035884;28;20041;-68
2021/08/31 00:30:53;;;;;;;20.33;12.48;;;;;;;12.57;100.00;96020.47;1035709;28;20033;-70
2021/08/31 00:31:24;;;;;;;22.77;13.40;;;;;;;12.57;100.00;96023.91;1034808;28;20030;-69
2021/08/31 00:31:54;;;;;;;16.58;11.13;;;;;;;12.58;100.00;96022.84;1031896;28;20065;-69
2021/08/31 00:32:25;;;;;;;20.50;12.00;;;;;;;12.55;100.00;96019.97;1031832;28;20081;-69
2021/08/31 00:32:55;;;;;;;19.30;12.40;;;;;;;12.56;100.00;96024.19;1031767;28;20034;-69
2021/08/31 00:33:26;;;;;;;25.25;12.65;;;;;;;12.55;100.00;96023.38;1030987;28;20030;-68
2021/08/31 00:33:56;;;;;;;21.15;12.02;;;;;;;12.56;100.00;96027.59;1031740;28;20030;-69
2021/08/31 00:34:27;;;;;;;19.90;12.70;;;;;;;12.55;100.00;96027.88;1027721;28;20042;-69
2021/08/31 00:34:57;;;;;;;18.92;11.65;;;;;;;12.55;100.00;96027.88;1027163;28;20030;-70
2021/08/31 00:35:27;;;;;;;19.30;12.45;;;;;;;12.55;100.00;96026.03;1031679;28;20045;-67
2021/08/31 00:36:00;;;;;;;20.27;11.70;;;;;;;12.56;100.00;96021.53;1031743;28;20034;-69
2021/08/31 00:36:30;;;;;;;17.20;11.70;;;;;;;12.56;100.00;96024.19;1031266;28;20436;-68
2021/08/31 00:37:01;;;;;;;21.48;13.02;;;;;;;12.52;100.00;96029.19;1027642;28;20268;-69
2021/08/31 00:37:31;;;;;;;17.65;10.85;;;;;;;12.53;100.00;96032.59;1023913;28;20374;-70
2021/08/31 00:38:01;;;;;;;20.55;12.38;;;;;;;12.56;100.00;96029.44;1023695;29;20035;-69
2021/08/31 00:38:32;;;;;;;19.38;12.38;;;;;;;12.50;100.00;96026.81;1027122;28;20512;-69
2021/08/31 00:39:02;;;;;;;19.05;12.27;;;;;;;12.53;100.00;96024.72;1024053;28;20787;-69
2021/08/31 00:39:33;;;;;;;20.73;11.65;;;;;;;12.56;100.00;96029.44;1014645;29;20048;-69
2021/08/31 00:40:04;;;;;;;21.00;12.82;;;;;;;12.48;100.00;96023.66;1026576;28;20031;-68
2021/08/31 00:40:34;;;;;;;19.73;12.63;;;;;;;12.52;100.00;96026.56;1028316;28;20593;-69
2021/08/31 00:41:05;;;;;;;20.17;12.07;;;;;;;12.54;100.00;96026.28;1032018;28;20266;-69
2021/08/31 00:41:36;;;;;;;25.45;14.57;;;;;;;12.52;100.00;96023.13;1026845;28;20039;-69
2021/08/31 00:42:09;;;;;;;18.95;12.10;;;;;;;12.58;100.00;96024.72;1027623;28;20046;-69
2021/08/31 00:42:40;;;;;;;22.27;12.68;;;;;;;12.55;100.00;96028.66;1020100;29;20342;-69
2021/08/31 00:43:10;;;;;;;20.20;11.88;;;;;;;12.53;100.00;96032.59;1024305;28;20808;-69
2021/08/31 00:43:48;;;;;;;17.85;12.00;;;;;;;12.55;100.00;96025.25;1031093;28;20073;-69
2021/08/31 00:44:22;;;;;;;21.95;11.88;;;;;;;12.52;100.00;96033.66;1033093;28;20141;-69
2021/08/31 00:44:52;;;;;;;18.90;12.18;;;;;;;12.54;100.00;96032.34;1031895;28;20655;-70
2021/08/31 00:45:24;;;;;;;17.85;12.23;;;;;;;12.50;100.00;96024.19;1031447;28;20281;-69
2021/08/31 00:45:55;;;;;;;20.10;11.85;;;;;;;12.49;100.00;96025.25;1027782;28;20459;-69
2021/08/31 00:46:25;;;;;;;16.88;11.18;;;;;;;12.54;100.00;96031.53;1032083;28;20690;-70
2021/08/31 00:46:59;;;;;;;22.83;11.95;;;;;;;12.49;100.00;96030.50;1031646;28;20276;-70
2021/08/31 00:47:30;;;;;;;19.75;12.45;;;;;;;12.52;100.00;96036.31;1028594;28;20027;-69
2021/08/31 00:48:01;;;;;;;19.92;13.02;;;;;;;12.55;100.00;96035.78;1028382;28;20270;-69
2021/08/31 00:48:31;;;;;;;16.10;11.93;;;;;;;12.50;100.00;96031.28;1030175;28;20283;-69
2021/08/31 00:49:01;;;;;;;19.00;11.18;;;;;;;12.52;100.00;96034.44;1030393;28;20269;-69
2021/08/31 00:49:32;;;;;;;16.98;12.18;;;;;;;12.46;100.00;96038.94;1027281;28;20089;-69
2021/08/31 00:50:04;;;;;;;19.67;12.25;;;;;;;12.48;100.00;96034.19;1027284;28;20093;-68
2021/08/31 00:50:34;;;;;;;18.70;12.40;;;;;;;12.49;100.00;96038.41;1019250;29;20201;-69
2021/08/31 00:51:05;;;;;;;18.40;11.88;;;;;;;12.48;100.00;96039.47;1019733;29;20287;-69
2021/08/31 00:51:36;;;;;;;18.42;11.68;;;;;;;12.47;100.00;96029.19;1023238;28;20512;-69
2021/08/31 00:52:07;;;;;;;23.05;13.20;;;;;;;12.48;100.00;96033.41;1027088;28;20070;-69
2021/08/31 00:52:39;;;;;;;20.08;12.75;;;;;;;12.47;100.00;96037.09;1027524;28;20262;-66
2021/08/31 00:53:10;;;;;;;20.10;12.38;;;;;;;12.47;100.00;96032.63;1027376;28;20018;-69
2021/08/31 00:53:40;;;;;;;18.55;11.60;;;;;;;12.47;100.00;96035.25;1023310;28;20357;-68
2021/08/31 00:54:11;;;;;;;18.05;11.70;;;;;;;12.41;100.00;96028.44;1027475;28;20027;-69
2021/08/31 00:54:41;;;;;;;15.05;11.02;;;;;;;12.44;100.00;96033.16;1023438;28;20027;-69
2021/08/31 00:55:12;;;;;;;19.45;11.90;;;;;;;12.45;100.00;96037.38;1035367;28;20514;-68
2021/08/31 00:55:44;;;;;;;18.25;11.75;;;;;;;12.45;100.00;96040.00;1039537;28;20025;-70
2021/08/31 00:56:15;;;;;;;20.45;12.50;;;;;;;12.45;100.00;96033.94;1035423;28;20638;-70
2021/08/31 00:56:47;;;;;;;19.13;11.70;;;;;;;12.48;100.00;96042.09;1027503;28;20257;-70
2021/08/31 00:57:18;;;;;;;19.48;12.52;;;;;;;12.47;100.00;96037.91;1026848;28;20267;-69
2021/08/31 00:57:48;;;;;;;22.30;12.57;;;;;;;12.48;100.00;96036.84;1024139;28;20289;-68
2021/08/31 00:58:19;;;;;;;19.10;12.27;;;;;;;12.48;100.00;96042.09;1023711;28;20027;-70
2021/08/31 00:58:49;;;;;;;20.95;12.63;;;;;;;12.45;100.00;96034.72;1025293;28;20476;-72
2021/08/31 00:59:23;;;;;;;18.35;11.48;;;;;;;12.47;100.00;96042.34;1027525;28;20551;-69
2021/08/31 00:59:53;;;;;;;20.58;12.13;;;;;;;12.44;100.00;96041.06;1028229;28;20089;-69
2021/08/31 01:00:23;;;;;;;17.58;10.95;;;;;;;12.46;100.00;96046.81;1030902;28;20882;-69
2021/08/31 01:00:54;;;;;;;19.38;11.88;;;;;;;12.41;100.00;96036.31;1023852;28;20556;-69
2021/08/31 01:01:24;;;;;;;17.58;11.07;;;;;;;12.41;100.00;96038.97;1026655;28;20038;-68
2021/08/31 01:01:55;;;;;;;18.08;11.30;;;;;;;12.47;100.00;96047.59;1023645;29;20031;-69
2021/08/31 01:02:26;;;;;;;19.88;11.98;;;;;;;12.43;100.00;96033.41;1023157;29;20042;-69
2021/08/31 01:02:56;;;;;;;17.60;11.13;;;;;;;12.48;100.00;96044.72;1027192;28;20034;-69
2021/08/31 01:03:27;;;;;;;16.17;10.38;;;;;;;12.40;100.00;96039.22;1031458;28;20346;-68
2021/08/31 01:03:57;;;;;;;16.35;10.40;;;;;;;12.44;100.00;96043.69;1033149;28;20501;-69
2021/08/31 01:04:28;;;;;;;18.10;11.23;;;;;;;12.40;100.00;96045.25;1031346;28;20062;-69
2021/08/31 01:04:59;;;;;;;18.50;11.75;;;;;;;12.45;100.00;96053.16;1023518;28;20385;-69
2021/08/31 01:05:31;;;;;;;15.73;10.80;;;;;;;12.41;100.00;96052.13;1023569;28;20030;-70
2021/08/31 01:06:02;;;;;;;21.02;11.93;;;;;;;12.41;100.00;96038.97;1023583;29;20773;-70
2021/08/31 01:06:32;;;;;;;17.70;11.27;;;;;;;12.38;100.00;96039.47;1023403;29;20333;-69
2021/08/31 01:07:03;;;;;;;16.70;10.68;;;;;;;12.40;100.00;96042.63;1031304;28;20312;-69
2021/08/31 01:07:34;;;;;;;20.23;12.38;;;;;;;12.47;100.00;96048.41;1031113;28;20423;-66
2021/08/31 01:08:05;;;;;;;19.40;11.90;;;;;;;12.41;100.00;96046.84;1031612;28;20477;-69
2021/08/31 01:08:36;;;;;;;17.98;11.15;;;;;;;12.44;100.00;96051.59;1031236;28;20057;-67
2021/08/31 01:09:08;;;;;;;21.85;12.48;;;;;;;12.41;100.00;96044.22;1029501;28;20324;-69
2021/08/31 01:09:38;;;;;;;16.33;10.82;;;;;;;12.37;100.00;96042.38;1035017;28;20017;-69
2021/08/31 01:10:09;;;;;;;18.17;11.10;;;;;;;12.37;100.00;96035.25;1035482;28;20264;-68
2021/08/31 01:10:40;;;;;;;19.55;12.15;;;;;;;12.43;100.00;96047.34;1032525;28;20026;-70
2021/08/31 01:11:10;;;;;;;17.27;11.00;;;;;;;12.41;100.00;96049.47;1026728;28;20022;-69
2021/08/31 01:11:41;;;;;;;18.20;11.27;;;;;;;12.36;100.00;96040.81;1027303;28;20011;-69
2021/08/31 01:12:12;;;;;;;16.50;10.80;;;;;;;12.35;100.00;96040.00;1027366;28;20011;-69
2021/08/31 01:12:45;;;;;;;17.15;11.20;;;;;;;12.36;100.00;96041.59;1022864;28;20094;-69
2021/08/31 01:13:15;;;;;;;20.52;11.32;;;;;;;12.36;100.00;96038.94;1035401;28;20297;-69
2021/08/31 01:13:46;;;;;;;18.73;11.70;;;;;;;12.41;100.00;96051.31;1031469;28;20329;-69
2021/08/31 01:14:16;;;;;;;18.02;12.20;;;;;;;12.42;100.00;96050.25;1024520;28;20059;-69
2021/08/31 01:14:49;;;;;;;19.27;11.38;;;;;;;12.41;100.00;96046.84;1031316;28;20021;-69
2021/08/31 01:15:20;;;;;;;19.08;10.73;;;;;;;12.42;100.00;96050.25;1030452;28;20541;-67
2021/08/31 01:15:50;;;;;;;17.67;11.85;;;;;;;12.43;100.00;96049.22;1030677;28;20344;-70
2021/08/31 01:16:21;;;;;;;18.73;11.20;;;;;;;12.44;100.00;96048.13;1032140;28;20029;-70
2021/08/31 01:16:51;;;;;;;19.60;10.88;;;;;;;12.39;100.00;96041.06;1035221;28;20101;-69
2021/08/31 01:17:23;;;;;;;17.02;10.85;;;;;;;12.41;100.00;96048.69;1022895;28;20023;-70
2021/08/31 01:17:54;;;;;;;16.25;10.82;;;;;;;12.40;100.00;96042.63;1027297;28;20102;-70
2021/08/31 01:18:26;;;;;;;18.02;11.05;;;;;;;12.38;100.00;96046.59;1027378;28;20306;-69
2021/08/31 01:18:57;;;;;;;17.27;11.13;;;;;;;12.38;100.00;96046.59;1030798;28;20064;-69
2021/08/31 01:19:31;;;;;;;17.83;11.65;;;;;;;12.41;100.00;96046.84;1021547;28;20298;-70
2021/08/31 01:20:02;;;;;;;18.10;11.90;;;;;;;12.40;100.00;96042.63;1020177;29;20034;-69
2021/08/31 01:20:33;;;;;;;15.90;11.38;;;;;;;12.40;100.00;96047.88;1024986;28;20275;-69
2021/08/31 01:21:03;;;;;;;18.30;11.65;;;;;;;12.37;100.00;96048.41;1032129;28;20265;-69
2021/08/31 01:21:34;;;;;;;18.92;11.85;;;;;;;12.35;100.00;96042.66;1032258;28;20377;-70
2021/08/31 01:22:09;;;;;;;19.58;11.00;;;;;;;12.34;100.00;96042.91;1035760;28;20460;-69
2021/08/31 01:22:40;;;;;;;20.67;11.50;;;;;;;12.32;100.00;96045.81;1033405;28;20065;-69
2021/08/31 01:23:11;;;;;;;14.77;10.75;;;;;;;12.26;100.00;96037.13;1031456;28;20344;-70
2021/08/31 01:23:42;;;;;;;16.80;11.20;;;;;;;12.24;100.00;96033.19;1027177;28;20190;-69
2021/08/31 01:24:13;;;;;;;21.38;12.10;;;;;;;12.31;100.00;96044.25;1027569;28;20085;-69
2021/08/31 01:24:47;;;;;;;19.70;12.63;;;;;;;12.28;100.00;96039.50;1027220;28;20317;-69
2021/08/31 01:25:17;;;;;;;20.23;11.57;;;;;;;12.33;100.00;96039.47;1027694;28;20030;-70
2021/08/31 01:25:48;;;;;;;24.80;11.30;;;;;;;12.25;100.00;96037.41;1027064;28;21047;-68
2021/08/31 01:26:19;;;;;;;21.48;12.00;;;;;;;12.30;100.00;96036.59;1023620;28;20030;-70
2021/08/31 01:26:49;;;;;;;18.98;12.85;;;;;;;12.30;100.00;96042.63;1027383;28;20045;-68
2021/08/31 01:27:21;;;;;;;21.63;12.25;;;;;;;12.29;100.00;96045.56;1027905;28;20828;-69
2021/08/31 01:27:51;;;;;;;19.10;11.82;;;;;;;12.30;100.00;96042.63;1028834;28;20089;-68
2021/08/31 01:28:27;;;;;;;24.58;13.00;;;;;;;12.22;100.00;96035.28;1031587;28;20320;-69
2021/08/31 01:28:58;;;;;;;18.85;11.60;;;;;;;12.29;100.00;96042.91;1032309;28;20034;-66
2021/08/31 01:29:29;;;;;;;19.00;12.30;;;;;;;12.22;100.00;96035.28;1034000;28;20269;-68
2021/08/31 01:29:59;;;;;;;23.48;11.77;;;;;;;12.25;100.00;96045.28;1031370;28;20061;-66
2021/08/31 01:30:30;;;;;;;25.27;13.15;;;;;;;12.27;100.00;96045.78;1031157;28;20327;-70
2021/08/31 01:31:00;;;;;;;21.10;12.45;;;;;;;12.29;100.00;96045.56;1027684;28;20026;-70
2021/08/31 01:31:31;;;;;;;20.23;11.70;;;;;;;12.24;100.00;96038.47;1026397;28;20039;-70
2021/08/31 01:32:05;;;;;;;22.15;13.20;;;;;;;12.27;100.00;96043.16;1031633;28;20488;-70
2021/08/31 01:32:36;;;;;;;20.38;12.05;;;;;;;12.24;100.00;96035.84;1027192;28;20278;-70
2021/08/31 01:33:08;;;;;;;23.73;12.52;;;;;;;12.27;100.00;96049.25;1030955;28;20269;-69
2021/08/31 01:33:39;;;;;;;17.80;11.48;;;;;;;12.25;100.00;96047.91;1031845;28;20041;-70
2021/08/31 01:34:09;;;;;;;20.58;11.68;;;;;;;12.27;100.00;96043.16;1023241;28;20271;-69
2021/08/31 01:34:40;;;;;;;18.67;11.50;;;;;;;12.27;100.00;96048.44;1027175;28;20078;-70
2021/08/31 01:35:12;;;;;;;22.17;12.65;;;;;;;12.25;100.00;96045.28;1027674;28;20035;-71
2021/08/31 01:35:42;;;;;;;23.73;12.13;;;;;;;12.25;100.00;96042.66;1031564;28;20472;-70
2021/08/31 01:36:17;;;;;;;18.40;11.00;;;;;;;12.16;100.00;96038.97;1031508;28;20453;-70
2021/08/31 01:36:47;;;;;;;16.02;10.45;;;;;;;12.18;100.00;96039.50;1027143;28;20038;-69
2021/08/31 01:37:18;;;;;;;15.27;10.32;;;;;;;12.06;100.00;96018.72;1027290;28;20863;-70
2021/08/31 01:37:48;;;;;;;21.10;11.32;;;;;;;12.21;100.00;96044.25;1027694;28;20033;-70
2021/08/31 01:38:19;;;;;;;20.17;11.45;;;;;;;12.21;100.00;96041.63;1027055;28;20409;-70
2021/08/31 01:38:53;;;;;;;15.52;10.88;;;;;;;12.16;100.00;96037.13;1023555;28;20023;-69
2021/08/31 01:39:26;;;;;;;22.75;13.13;;;;;;;12.18;100.00;96042.16;1024580;28;20039;-69
2021/08/31 01:39:56;;;;;;;18.20;12.40;;;;;;;12.19;100.00;96047.13;1018871;29;20657;-70
2021/08/31 01:40:27;;;;;;;19.38;12.57;;;;;;;12.17;100.00;96043.19;1027184;28;20580;-69
2021/08/31 01:40:57;;;;;;;19.40;11.70;;;;;;;12.15;100.00;96046.09;1035260;28;20034;-70
2021/08/31 01:41:27;;;;;;;18.50;11.98;;;;;;;12.18;100.00;96044.78;1033996;28;20449;-70
2021/08/31 01:41:58;;;;;;;20.80;11.65;;;;;;;12.17;100.00;96048.44;1027161;28;20081;-70
2021/08/31 01:42:28;;;;;;;22.17;12.25;;;;;;;12.15;100.00;96045.31;1027204;28;20106;-70
2021/08/31 01:42:59;;;;;;;18.40;11.30;;;;;;;12.15;100.00;96046.09;1027186;28;20038;-69
2021/08/31 01:43:29;;;;;;;21.60;12.13;;;;;;;12.17;100.00;96051.06;1023206;28;20038;-70
2021/08/31 01:44:00;;;;;;;25.50;13.15;;;;;;;12.18;100.00;96050.81;1023310;29;20034;-70
2021/08/31 01:44:30;;;;;;;24.50;13.00;;;;;;;12.15;100.00;96037.41;1022336;29;20042;-68
2021/08/31 01:45:01;;;;;;;21.73;12.48;;;;;;;12.19;100.00;96051.59;1019895;28;20031;-69
2021/08/31 01:45:44;;;;;;;19.38;11.38;;;;;;;12.18;100.00;96044.78;1024974;28;20031;-69
2021/08/31 01:46:14;;;;;;;21.70;11.70;;;;;;;12.16;100.00;96044.25;1026720;28;20030;-69
2021/08/31 01:46:45;;;;;;;19.70;12.15;;;;;;;12.14;100.00;96043.72;1028221;28;20270;-69
2021/08/31 01:47:15;;;;;;;14.60;10.25;;;;;;;12.16;100.00;96049.50;1028646;28;20038;-70
2021/08/31 01:47:45;;;;;;;20.17;12.10;;;;;;;12.18;100.00;96048.19;1026890;28;20031;-69
2021/08/31 01:48:16;;;;;;;22.65;12.90;;;;;;;12.16;100.00;96049.50;1026479;28;20089;-70
2021/08/31 01:48:46;;;;;;;17.90;11.48;;;;;;;12.18;100.00;96044.78;1022922;28;20046;-69
2021/08/31 01:49:18;;;;;;;17.90;11.55;;;;;;;12.16;100.00;96045.03;1022719;28;20038;-69
2021/08/31 01:49:48;;;;;;;17.13;11.25;;;;;;;12.17;100.00;96045.81;1022544;29;20031;-68
2021/08/31 01:50:19;;;;;;;19.63;11.85;;;;;;;12.18;100.00;96050.03;1019009;29;20263;-66
2021/08/31 01:50:49;;;;;;;17.95;11.40;;;;;;;12.20;100.00;96047.91;1026822;28;20030;-69
2021/08/31 01:51:20;;;;;;;22.20;11.68;;;;;;;12.17;100.00;96045.81;1030442;28;20174;-69
2021/08/31 01:51:50;;;;;;;15.80;10.65;;;;;;;12.16;100.00;96045.03;1034498;28;20076;-70
2021/08/31 01:52:21;;;;;;;17.73;10.45;;;;;;;12.18;100.00;96047.41;1039179;28;20064;-70
2021/08/31 01:52:51;;;;;;;21.63;11.15;;;;;;;12.17;100.00;96041.38;1030790;28;20022;-70
2021/08/31 01:53:21;;;;;;;23.40;12.82;;;;;;;12.17;100.00;96046.63;1030736;28;20504;-69
2021/08/31 01:53:55;;;;;;;18.15;11.18;;;;;;;12.19;100.00;96048.97;1027123;28;20370;-70
2021/08/31 01:54:26;;;;;;;18.33;10.90;;;;;;;12.14;100.00;96044.53;1024915;28;20046;-69
2021/08/31 01:54:57;;;;;;;18.15;10.95;;;;;;;12.14;100.00;96047.16;1026077;28;20278;-69
2021/08/31 01:55:27;;;;;;;16.98;11.32;;;;;;;12.16;100.00;96046.88;1027699;28;20286;-70
2021/08/31 01:55:57;;;;;;;18.98;12.38;;;;;;;12.09;100.00;96041.09;1031146;28;20030;-69
2021/08/31 01:56:28;;;;;;;20.25;11.93;;;;;;;12.14;100.00;96048.97;1026808;28;20085;-69
2021/08/31 01:56:58;;;;;;;19.17;12.38;;;;;;;12.14;100.00;96044.53;1026129;28;20525;-69
2021/08/31 01:57:29;;;;;;;19.17;11.18;;;;;;;12.17;100.00;96048.44;1026865;28;20034;-69
2021/08/31 01:57:59;;;;;;;22.85;12.85;;;;;;;12.16;100.00;96045.03;1023050;28;20027;-69
2021/08/31 01:58:30;;;;;;;21.92;12.02;;;;;;;12.13;100.00;96031.63;1026611;28;20121;-69
2021/08/31 01:59:00;;;;;;;18.50;11.85;;;;;;;12.10;100.00;96040.81;1030763;28;20484;-70
2021/08/31 01:59:31;;;;;;;20.02;11.80;;;;;;;12.13;100.00;96042.13;1022782;28;20038;-69
2021/08/31 02:00:02;;;;;;;17.73;11.88;;;;;;;12.13;100.00;96042.91;1021940;29;20549;-69
2021/08/31 02:00:33;;;;;;;21.15;12.48;;;;;;;12.15;100.00;96042.69;1018428;29;20564;-69
2021/08/31 02:01:03;;;;;;;19.75;11.10;;;;;;;12.15;100.00;96045.31;1018553;28;20275;-70
2021/08/31 02:01:34;;;;;;;19.85;11.77;;;;;;;12.14;100.00;96049.78;1030293;28;20022;-68
2021/08/31 02:02:04;;;;;;;22.27;12.13;;;;;;;12.10;100.00;96038.19;1023115;28;20034;-67
2021/08/31 02:02:35;;;;;;;21.08;12.40;;;;;;;12.12;100.00;96040.56;1026796;28;20037;-70
2021/08/31 02:03:05;;;;;;;20.83;12.80;;;;;;;12.14;100.00;96047.16;1030749;28;20093;-66
2021/08/31 02:03:36;;;;;;;15.65;10.45;;;;;;;12.13;100.00;96042.13;1026574;28;20018;-70
2021/08/31 02:04:07;;;;;;;19.55;11.80;;;;;;;12.10;100.00;96040.81;1018826;29;20111;-69
2021/08/31 02:04:37;;;;;;;21.85;12.20;;;;;;;12.15;100.00;96045.31;1022948;29;20031;-69
2021/08/31 02:05:08;;;;;;;19.42;12.30;;;;;;;12.15;100.00;96042.69;1023161;28;20070;-69
2021/08/31 02:05:38;;;;;;;20.55;11.95;;;;;;;12.10;100.00;96038.19;1035162;28;20014;-70
2021/08/31 02:06:09;;;;;;;19.20;11.77;;;;;;;12.14;100.00;96043.72;1030775;28;20101;-68
2021/08/31 02:06:39;;;;;;;19.75;11.95;;;;;;;12.13;100.00;96048.19;1025137;28;20086;-69
2021/08/31 02:07:10;;;;;;;17.15;10.38;;;;;;;12.10;100.00;96037.41;1025943;28;20109;-70
2021/08/31 02:07:40;;;;;;;16.23;10.07;;;;;;;12.12;100.00;96049.25;1026747;28;20073;-70
2021/08/31 02:08:11;;;;;;;19.45;12.10;;;;;;;12.10;100.00;96042.66;1030810;28;20030;-70
2021/08/31 02:08:41;;;;;;;18.98;10.98;;;;;;;12.03;100.00;96041.09;1032012;28;20724;-70
2021/08/31 02:09:12;;;;;;;23.30;12.00;;;;;;;12.13;100.00;96052.66;1034766;28;20025;-69
2021/08/31 02:09:42;;;;;;;19.42;11.90;;;;;;;12.13;100.00;96047.41;1022836;28;20019;-69
2021/08/31 02:10:13;;;;;;;20.23;11.25;;;;;;;12.11;100.00;96046.88;1022528;28;20031;-69
2021/08/31 02:10:43;;;;;;;22.48;12.80;;;;;;;12.13;100.00;96055.28;1019024;29;20028;-69
2021/08/31 02:11:13;;;;;;;18.80;11.40;;;;;;;12.12;100.00;96046.63;1026337;28;20379;-69
2021/08/31 02:11:44;;;;;;;18.77;11.23;;;;;;;12.15;100.00;96050.56;1026722;28;20035;-68
2021/08/31 02:12:14;;;;;;;18.85;12.00;;;;;;;12.10;100.00;96040.03;1019497;29;20024;-69
2021/08/31 02:12:45;;;;;;;21.60;11.75;;;;;;;12.15;100.00;96050.56;1022960;28;20139;-66
2021/08/31 02:13:15;;;;;;;20.48;11.90;;;;;;;12.10;100.00;96038.19;1022648;28;20020;-69
2021/08/31 02:13:46;;;;;;;18.45;10.95;;;;;;;12.19;100.00;96051.59;1026311;28;20030;-69
2021/08/31 02:14:16;;;;;;;18.27;11.43;;;;;;;12.21;100.00;96049.50;1027023;28;20389;-68
2021/08/31 02:14:47;;;;;;;18.67;11.48;;;;;;;12.14;100.00;96038.44;1031034;28;20022;-69
2021/08/31 02:15:17;;;;;;;19.67;12.18;;;;;;;12.24;100.00;96051.63;1030572;28;20121;-69
2021/08/31 02:15:47;;;;;;;17.95;11.55;;;;;;;12.24;100.00;96049.78;1033714;28;20077;-68
2021/08/31 02:16:18;;;;;;;17.75;11.27;;;;;;;12.23;100.00;96052.66;1026838;28;20125;-69
2021/08/31 02:16:48;;;;;;;15.82;10.35;;;;;;;12.18;100.00;96050.03;1026598;28;20022;-69
2021/08/31 02:17:19;;;;;;;20.02;11.68;;;;;;;12.18;100.00;96050.03;1026014;28;20023;-69
2021/08/31 02:17:49;;;;;;;22.45;11.48;;;;;;;12.20;100.00;96043.44;1026563;28;20026;-70
2021/08/31 02:18:20;;;;;;;18.77;11.70;;;;;;;12.16;100.00;96038.97;1034965;28;20148;-68
2021/08/31 02:18:50;;;;;;;17.88;11.13;;;;;;;12.21;100.00;96046.88;1034686;28;20034;-70
2021/08/31 02:19:21;;;;;;;22.17;12.18;;;;;;;12.20;100.00;96047.91;1030835;28;20397;-69
2021/08/31 02:19:51;;;;;;;21.63;12.65;;;;;;;12.15;100.00;96042.69;1030223;28;20022;-70
2021/08/31 02:20:21;;;;;;;20.40;12.52;;;;;;;12.19;100.00;96052.41;1026626;28;20023;-68